createdAt,value
2018-07-23T00:01:04.397Z,57.59
2018-07-23T00:03:31.961Z,57.65
2018-07-23T00:05:59.601Z,57.41
2018-07-23T00:08:27.267Z,57.27
2018-07-23T00:10:54.902Z,57.25
2018-07-23T00:13:22.508Z,57.86
2018-07-23T00:15:50.181Z,58.18
2018-07-23T00:18:17.786Z,58.75
2018-07-23T00:20:45.448Z,59.05
2018-07-23T00:23:13.054Z,58.66
2018-07-23T00:25:40.774Z,58.95
2018-07-23T00:28:08.405Z,59.15
2018-07-23T00:30:36.022Z,59.28
2018-07-23T00:33:03.648Z,59.28
2018-07-23T00:35:31.951Z,59.38
2018-07-23T00:37:59.635Z,59.16
2018-07-23T00:40:27.235Z,59.85
2018-07-23T00:42:54.851Z,59.76
2018-07-23T00:45:22.493Z,59.71
2018-07-23T00:47:50.106Z,60.30
2018-07-23T00:50:17.704Z,60.63
2018-07-23T00:52:45.364Z,60.40
2018-07-23T00:55:13.059Z,60.34
2018-07-23T00:57:40.662Z,60.56
2018-07-23T01:00:08.602Z,61.03
2018-07-23T01:02:36.290Z,60.60
2018-07-23T01:05:03.914Z,60.73
2018-07-23T01:07:31.612Z,61.23
2018-07-23T01:09:59.243Z,61.33
2018-07-23T01:12:30.646Z,61.83
2018-07-23T01:14:58.242Z,61.39
2018-07-23T01:17:25.890Z,60.58
2018-07-23T01:19:55.654Z,60.49
2018-07-23T01:22:24.445Z,60.36
2018-07-23T01:24:52.710Z,60.17
2018-07-23T01:27:20.312Z,59.88
2018-07-23T01:29:48.154Z,59.72
2018-07-23T01:32:16.166Z,59.01
2018-07-23T01:34:44.090Z,58.67
2018-07-23T01:37:11.758Z,59.67
2018-07-23T01:39:39.486Z,59.69
2018-07-23T01:42:07.216Z,59.28
2018-07-23T01:44:38.231Z,59.12
2018-07-23T01:47:07.000Z,59.03
2018-07-23T01:49:34.772Z,59.33
2018-07-23T01:52:02.459Z,59.30
2018-07-23T01:54:30.170Z,59.60
2018-07-23T01:56:57.844Z,59.93
2018-07-23T01:59:25.550Z,59.92
2018-07-23T02:01:53.202Z,59.97
2018-07-23T02:04:20.866Z,60.48
2018-07-23T02:06:48.549Z,60.76
2018-07-23T02:09:17.016Z,60.31
2018-07-23T02:11:44.701Z,60.56
2018-07-23T02:14:12.333Z,60.87
2018-07-23T02:16:39.963Z,60.14
2018-07-23T02:19:07.610Z,60.71
2018-07-23T02:21:35.785Z,60.49
2018-07-23T02:24:03.977Z,60.99
2018-07-23T02:26:31.570Z,60.94
2018-07-23T02:28:59.264Z,60.51
2018-07-23T02:31:26.913Z,61.09
2018-07-23T02:33:54.569Z,61.58
2018-07-23T02:36:22.173Z,61.54
2018-07-23T02:38:49.865Z,61.69
2018-07-23T02:41:17.620Z,62.05
2018-07-23T02:43:45.369Z,62.02
2018-07-23T02:46:13.044Z,61.70
2018-07-23T02:48:40.697Z,62.07
2018-07-23T02:51:09.065Z,62.48
2018-07-23T02:53:36.720Z,61.70
2018-07-23T02:56:04.371Z,62.72
2018-07-23T02:58:32.010Z,62.70
2018-07-23T03:00:59.627Z,62.24
2018-07-23T03:03:27.261Z,61.88
2018-07-23T03:05:54.851Z,62.36
2018-07-23T03:08:22.476Z,61.92
2018-07-23T03:10:50.054Z,61.68
2018-07-23T03:13:17.706Z,61.75
2018-07-23T03:15:45.348Z,61.93
2018-07-23T03:18:12.972Z,61.65
2018-07-23T03:20:40.560Z,61.82
2018-07-23T03:23:08.258Z,62.12
2018-07-23T03:25:35.932Z,61.68
2018-07-23T03:28:03.581Z,61.55
2018-07-23T03:30:31.353Z,61.37
2018-07-23T03:32:59.048Z,61.31
2018-07-23T03:35:27.067Z,61.48
2018-07-23T03:37:54.730Z,61.81
2018-07-23T03:40:22.453Z,62.14
2018-07-23T03:42:50.123Z,61.67
2018-07-23T03:45:17.724Z,62.28
2018-07-23T03:47:45.377Z,62.92
2018-07-23T03:50:12.975Z,62.44
2018-07-23T03:52:40.600Z,62.56
2018-07-23T03:55:08.243Z,62.76
2018-07-23T03:57:35.884Z,63.11
2018-07-23T04:00:04.107Z,62.05
2018-07-23T04:02:31.723Z,62.03
2018-07-23T04:04:59.403Z,62.35
2018-07-23T04:07:27.086Z,62.58
2018-07-23T04:09:54.735Z,62.16
2018-07-23T04:12:22.310Z,62.46
2018-07-23T04:14:49.980Z,62.58
2018-07-23T04:17:18.666Z,62.72
2018-07-23T04:19:46.320Z,62.48
2018-07-23T04:22:13.984Z,62.53
2018-07-23T04:24:41.598Z,62.57
2018-07-23T04:27:09.220Z,62.28
2018-07-23T04:29:36.894Z,61.76
2018-07-23T04:32:04.586Z,61.20
2018-07-23T04:34:32.224Z,60.30
2018-07-23T04:36:59.833Z,60.63
2018-07-23T04:39:27.423Z,60.21
2018-07-23T04:41:55.042Z,59.13
2018-07-23T04:44:22.653Z,59.27
2018-07-23T04:46:50.269Z,59.91
2018-07-23T04:49:17.965Z,60.58
2018-07-23T04:51:45.572Z,59.52
2018-07-23T04:54:13.287Z,59.79
2018-07-23T04:56:40.897Z,58.94
2018-07-23T04:59:08.503Z,58.57
2018-07-23T05:01:36.077Z,58.27
2018-07-23T05:04:03.892Z,57.70
2018-07-23T05:06:31.487Z,57.29
2018-07-23T05:08:59.084Z,56.82
2018-07-23T05:11:26.691Z,56.34
2018-07-23T05:13:54.343Z,56.19
2018-07-23T05:16:21.932Z,55.93
2018-07-23T05:18:49.526Z,57.50
2018-07-23T05:21:17.090Z,57.85
2018-07-23T05:23:44.737Z,58.11
2018-07-23T05:26:12.384Z,57.53
2018-07-23T05:28:39.930Z,57.04
2018-07-23T05:31:07.604Z,57.94
2018-07-23T05:33:35.205Z,58.26
2018-07-23T05:36:02.841Z,57.07
2018-07-23T05:38:30.612Z,57.56
2018-07-23T05:40:58.271Z,56.70
2018-07-23T05:43:25.892Z,55.04
2018-07-23T05:45:53.526Z,55.51
2018-07-23T05:48:27.993Z,54.80
2018-07-23T05:50:55.638Z,53.64
2018-07-23T05:53:23.270Z,52.91
2018-07-23T05:55:50.883Z,51.59
2018-07-23T05:58:18.439Z,52.94
2018-07-23T06:00:46.063Z,53.76
2018-07-23T06:03:16.489Z,52.74
2018-07-23T06:05:44.149Z,53.37
2018-07-23T06:08:11.749Z,53.66
2018-07-23T06:10:39.603Z,53.31
2018-07-23T06:13:07.342Z,52.68
2018-07-23T06:15:34.988Z,52.18
2018-07-23T06:18:02.641Z,50.75
2018-07-23T06:20:30.253Z,50.50
2018-07-23T06:22:57.940Z,51.73
2018-07-23T06:25:25.547Z,50.24
2018-07-23T06:27:53.415Z,51.88
2018-07-23T06:30:21.095Z,52.46
2018-07-23T06:32:48.653Z,52.31
2018-07-23T06:35:16.328Z,50.57
2018-07-23T06:37:43.925Z,49.69
2018-07-23T06:40:11.498Z,48.18
2018-07-23T06:42:39.082Z,47.83
2018-07-23T06:45:06.679Z,47.91
2018-07-23T06:47:34.505Z,48.89
2018-07-23T06:50:02.510Z,48.19
2018-07-23T06:52:30.114Z,49.13
2018-07-23T06:54:59.039Z,48.37
2018-07-23T06:57:26.740Z,48.49
2018-07-23T06:59:54.333Z,46.88
2018-07-23T07:02:21.961Z,46.27
2018-07-23T07:04:49.573Z,46.26
2018-07-23T07:07:17.209Z,44.28
2018-07-23T07:09:44.834Z,43.25
2018-07-23T07:12:12.389Z,43.22
2018-07-23T07:14:39.961Z,43.19
2018-07-23T07:17:07.537Z,43.72
2018-07-23T07:19:35.164Z,42.42
2018-07-23T07:22:02.811Z,41.38
2018-07-23T07:24:30.411Z,41.25
2018-07-23T07:26:58.087Z,43.22
2018-07-23T07:29:25.752Z,43.60
2018-07-23T07:31:53.389Z,44.23
2018-07-23T07:34:21.010Z,45.39
2018-07-23T07:36:48.639Z,46.14
2018-07-23T07:39:16.259Z,45.94
2018-07-23T07:41:43.856Z,44.55
2018-07-23T07:44:11.461Z,43.92
2018-07-23T07:46:40.174Z,45.48
2018-07-23T07:49:07.908Z,43.68
2018-07-23T07:51:35.555Z,42.80
2018-07-23T07:54:03.290Z,43.12
2018-07-23T07:56:31.636Z,43.36
2018-07-23T07:58:59.279Z,42.74
2018-07-23T08:01:26.870Z,42.76
2018-07-23T08:03:54.548Z,42.43
2018-07-23T08:06:22.210Z,41.93
2018-07-23T08:08:49.901Z,40.41
2018-07-23T08:11:17.556Z,38.99
2018-07-23T08:13:45.482Z,38.39
2018-07-23T08:16:13.130Z,37.66
2018-07-23T08:18:40.880Z,37.70
2018-07-23T08:21:08.526Z,37.20
2018-07-23T08:23:36.220Z,37.25
2018-07-23T08:26:04.124Z,36.52
2018-07-23T08:28:31.784Z,35.75
2018-07-23T08:30:59.475Z,36.49
2018-07-23T08:33:27.089Z,35.63
2018-07-23T08:35:54.747Z,36.05
2018-07-23T08:38:22.439Z,35.07
2018-07-23T08:40:50.128Z,37.14
2018-07-23T08:43:17.972Z,37.61
2018-07-23T08:45:45.631Z,35.71
2018-07-23T08:48:13.252Z,35.90
2018-07-23T08:50:40.888Z,35.15
2018-07-23T08:53:08.674Z,33.44
2018-07-23T08:55:36.372Z,33.67
2018-07-23T08:58:04.044Z,34.70
2018-07-23T09:00:31.681Z,36.28
2018-07-23T09:02:59.360Z,37.18
2018-07-23T09:05:26.984Z,36.41
2018-07-23T09:07:54.668Z,36.20
2018-07-23T09:10:22.346Z,35.72
2018-07-23T09:12:50.017Z,35.13
2018-07-23T09:15:17.674Z,35.45
2018-07-23T09:17:45.314Z,34.85
2018-07-23T09:20:12.962Z,34.08
2018-07-23T09:22:40.567Z,33.65
2018-07-23T09:25:09.204Z,32.37
2018-07-23T09:27:39.281Z,33.79
2018-07-23T09:30:11.594Z,32.91
2018-07-23T09:32:39.249Z,32.31
2018-07-23T09:35:06.888Z,31.98
2018-07-23T09:37:35.032Z,32.56
2018-07-23T09:40:02.689Z,32.30
2018-07-23T09:42:30.480Z,32.46
2018-07-23T09:44:58.158Z,33.00
2018-07-23T09:47:25.782Z,32.18
2018-07-23T09:49:53.411Z,32.94
2018-07-23T09:52:21.067Z,31.59
2018-07-23T09:54:48.690Z,32.08
2018-07-23T09:59:50.506Z,32.81
2018-07-23T10:02:18.068Z,33.40
2018-07-23T10:04:45.662Z,32.89
2018-07-23T10:07:13.248Z,32.14
2018-07-23T10:09:40.912Z,32.70
2018-07-23T10:12:08.571Z,32.20
2018-07-23T10:14:36.212Z,32.36
2018-07-23T10:17:03.852Z,32.52
2018-07-23T10:19:31.453Z,32.45
2018-07-23T10:21:59.155Z,31.71
2018-07-23T10:24:26.891Z,33.24
2018-07-23T10:26:54.468Z,32.22
2018-07-23T10:29:22.003Z,32.55
2018-07-23T10:31:49.615Z,31.48
2018-07-23T10:34:17.191Z,32.00
2018-07-23T10:36:44.844Z,32.15
2018-07-23T10:39:12.540Z,31.79
2018-07-23T10:41:40.245Z,31.72
2018-07-23T10:44:07.892Z,32.94
2018-07-23T10:46:35.488Z,31.20
2018-07-23T10:49:03.136Z,31.95
2018-07-23T10:51:30.781Z,32.10
2018-07-23T10:53:58.563Z,31.45
2018-07-23T10:56:26.316Z,31.39
2018-07-23T10:58:53.940Z,31.39
2018-07-23T11:01:21.570Z,31.38
2018-07-23T11:03:49.228Z,32.04
2018-07-23T11:06:16.809Z,31.90
2018-07-23T11:08:44.369Z,31.05
2018-07-23T11:11:11.928Z,30.76
2018-07-23T11:13:39.549Z,31.09
2018-07-23T11:16:07.133Z,31.12
2018-07-23T11:18:34.777Z,30.22
2018-07-23T11:21:02.458Z,30.93
2018-07-23T11:23:30.090Z,32.12
2018-07-23T11:25:57.649Z,32.11
2018-07-23T11:28:25.271Z,32.51
2018-07-23T11:30:52.877Z,32.62
2018-07-23T11:33:20.497Z,33.05
2018-07-23T11:35:48.075Z,32.43
2018-07-23T11:38:15.676Z,31.59
2018-07-23T11:40:43.259Z,30.88
2018-07-23T11:43:10.834Z,30.76
2018-07-23T11:45:38.441Z,29.84
2018-07-23T11:48:06.015Z,31.06
2018-07-23T11:50:33.691Z,29.23
2018-07-23T11:53:01.288Z,28.80
2018-07-23T11:55:28.810Z,29.60
2018-07-23T11:57:56.428Z,29.12
2018-07-23T12:00:23.980Z,28.85
2018-07-23T12:02:51.578Z,28.68
2018-07-23T12:05:19.154Z,28.98
2018-07-23T12:07:46.750Z,28.01
2018-07-23T12:10:14.306Z,27.86
2018-07-23T12:12:42.316Z,28.31
2018-07-23T12:15:10.082Z,28.13
2018-07-23T12:17:37.850Z,28.10
2018-07-23T12:20:05.736Z,28.09
2018-07-23T12:22:33.342Z,27.63
2018-07-23T12:25:01.102Z,27.78
2018-07-23T12:27:28.675Z,26.91
2018-07-23T12:29:56.397Z,27.31
2018-07-23T12:32:23.950Z,28.17
2018-07-23T12:34:51.593Z,27.77
2018-07-23T12:37:19.213Z,27.09
2018-07-23T12:39:46.881Z,26.97
2018-07-23T12:42:14.425Z,25.91
2018-07-23T12:44:42.012Z,27.03
2018-07-23T12:47:09.699Z,27.85
2018-07-23T12:49:37.312Z,26.85
2018-07-23T12:52:04.896Z,25.83
2018-07-23T12:54:32.453Z,25.35
2018-07-23T12:57:00.043Z,25.52
2018-07-23T12:59:27.685Z,25.99
2018-07-23T13:01:55.281Z,25.89
2018-07-23T13:04:22.952Z,26.27
2018-07-23T13:06:50.569Z,26.11
2018-07-23T13:09:18.167Z,26.31
2018-07-23T13:11:45.709Z,25.67
2018-07-23T13:14:13.381Z,25.18
2018-07-23T13:16:40.944Z,24.51
2018-07-23T13:19:08.579Z,26.35
2018-07-23T13:21:36.103Z,26.82
2018-07-23T13:24:03.718Z,27.38
2018-07-23T13:26:31.428Z,27.63
2018-07-23T13:28:59.691Z,27.15
2018-07-23T13:31:27.367Z,26.00
2018-07-23T13:33:54.961Z,25.75
2018-07-23T13:36:22.872Z,25.33
2018-07-23T13:38:50.496Z,25.05
2018-07-23T13:41:18.071Z,25.16
2018-07-23T13:43:45.664Z,25.70
2018-07-23T13:46:13.394Z,26.23
2018-07-23T13:48:41.042Z,27.41
2018-07-23T13:51:08.608Z,28.40
2018-07-23T13:53:36.241Z,26.86
2018-07-23T13:56:03.849Z,26.46
2018-07-23T13:58:31.480Z,26.02
2018-07-23T14:00:59.049Z,24.29
2018-07-23T14:03:26.628Z,24.40
2018-07-23T14:05:54.349Z,24.69
2018-07-23T14:08:21.947Z,24.52
2018-07-23T14:10:49.556Z,24.95
2018-07-23T14:13:17.241Z,24.16
2018-07-23T14:15:44.806Z,22.89
2018-07-23T14:18:12.394Z,23.07
2018-07-23T14:20:40.021Z,22.61
2018-07-23T14:23:07.685Z,23.13
2018-07-23T14:25:35.354Z,23.40
2018-07-23T14:28:03.010Z,22.20
2018-07-23T14:30:30.703Z,22.60
2018-07-23T14:32:58.276Z,22.22
2018-07-23T14:35:25.904Z,21.40
2018-07-23T14:37:53.443Z,21.54
2018-07-23T14:40:21.046Z,20.27
2018-07-23T14:42:48.646Z,21.48
2018-07-23T14:45:16.313Z,19.63
2018-07-23T14:47:43.945Z,19.98
2018-07-23T14:50:11.551Z,20.76
2018-07-23T14:52:39.280Z,19.92
2018-07-23T14:55:06.915Z,21.43
2018-07-23T14:57:34.644Z,20.79
2018-07-23T15:00:02.282Z,20.87
2018-07-23T15:02:29.899Z,21.07
2018-07-23T15:04:57.607Z,20.64
2018-07-23T15:07:25.315Z,19.97
2018-07-23T15:09:52.950Z,19.90
2018-07-23T15:12:20.630Z,20.79
2018-07-23T15:14:48.233Z,20.11
2018-07-23T15:17:15.924Z,20.13
2018-07-23T15:19:43.508Z,20.38
2018-07-23T15:22:11.269Z,20.44
2018-07-23T15:24:38.852Z,19.99
2018-07-23T15:27:06.738Z,20.18
2018-07-23T15:29:34.494Z,20.64
2018-07-23T15:32:02.354Z,19.68
2018-07-23T15:34:30.170Z,19.86
2018-07-23T15:36:57.938Z,21.03
2018-07-23T15:39:25.586Z,19.95
2018-07-23T15:41:53.433Z,20.12
2018-07-23T15:44:21.303Z,19.24
2018-07-23T15:46:48.826Z,19.41
2018-07-23T15:49:16.530Z,19.56
2018-07-23T15:51:44.519Z,19.41
2018-07-23T15:54:12.104Z,19.36
2018-07-23T15:56:39.799Z,19.39
2018-07-23T15:59:07.437Z,19.67
2018-07-23T16:01:35.033Z,18.51
2018-07-23T16:04:02.705Z,19.49
2018-07-23T16:06:30.289Z,19.26
2018-07-23T16:08:57.946Z,19.44
2018-07-23T16:11:25.609Z,20.72
2018-07-23T16:13:53.279Z,20.07
2018-07-23T16:16:21.093Z,20.22
2018-07-23T16:18:48.746Z,18.99
2018-07-23T16:21:16.365Z,19.70
2018-07-23T16:23:43.918Z,19.37
2018-07-23T16:26:11.538Z,18.82
2018-07-23T16:28:39.214Z,18.22
2018-07-23T16:31:06.797Z,17.81
2018-07-23T16:33:34.696Z,18.54
2018-07-23T16:36:02.321Z,18.68
2018-07-23T16:38:29.873Z,19.20
2018-07-23T16:40:57.479Z,19.20
2018-07-23T16:43:25.139Z,18.81
2018-07-23T16:45:52.719Z,18.65
2018-07-23T16:48:20.405Z,19.17
2018-07-23T16:50:48.060Z,19.00
2018-07-23T16:53:15.708Z,17.92
2018-07-23T16:55:43.242Z,17.94
2018-07-23T16:58:10.890Z,17.68
2018-07-23T17:00:38.551Z,18.26
2018-07-23T17:03:06.142Z,18.74
2018-07-23T17:05:34.613Z,19.21
2018-07-23T17:08:02.212Z,19.05
2018-07-23T17:10:29.822Z,19.31
2018-07-23T17:12:57.494Z,19.19
2018-07-23T17:15:25.098Z,18.86
2018-07-23T17:17:52.939Z,18.14
2018-07-23T17:20:20.549Z,18.93
2018-07-23T17:22:48.157Z,19.60
2018-07-23T17:25:15.795Z,20.06
2018-07-23T17:27:43.356Z,19.14
2018-07-23T17:30:10.984Z,19.05
2018-07-23T17:32:38.591Z,18.86
2018-07-23T17:35:06.153Z,18.94
2018-07-23T17:37:33.772Z,18.44
2018-07-23T17:40:01.383Z,18.75
2018-07-23T17:42:29.089Z,18.22
2018-07-23T17:44:56.684Z,19.01
2018-07-23T17:47:24.389Z,19.71
2018-07-23T17:49:52.066Z,19.62
2018-07-23T17:52:19.946Z,19.98
2018-07-23T17:54:47.592Z,19.95
2018-07-23T17:57:15.216Z,19.69
2018-07-23T17:59:42.846Z,19.58
2018-07-23T18:02:10.520Z,20.01
2018-07-23T18:04:38.201Z,19.87
2018-07-23T18:07:05.924Z,19.20
2018-07-23T18:09:33.592Z,19.58
2018-07-23T18:12:01.216Z,19.98
2018-07-23T18:14:29.198Z,19.57
2018-07-23T18:16:56.860Z,20.46
2018-07-23T18:19:24.808Z,20.73
2018-07-23T18:21:53.344Z,21.48
2018-07-23T18:24:21.069Z,21.67
2018-07-23T18:26:48.742Z,21.90
2018-07-23T18:29:21.070Z,21.98
2018-07-23T18:31:48.740Z,21.90
2018-07-23T18:34:16.426Z,23.15
2018-07-23T18:36:44.070Z,23.89
2018-07-23T18:39:12.349Z,23.85
2018-07-23T18:41:40.506Z,23.81
2018-07-23T18:44:08.575Z,23.73
2018-07-23T18:46:36.368Z,24.46
2018-07-23T18:49:33.319Z,24.28
2018-07-23T18:52:01.031Z,25.33
2018-07-23T18:54:29.760Z,25.55
2018-07-23T18:56:59.600Z,25.45
2018-07-23T18:59:27.218Z,25.51
2018-07-23T19:01:56.061Z,25.99
2018-07-23T19:04:23.725Z,25.80
2018-07-23T19:06:51.372Z,27.01
2018-07-23T19:09:20.244Z,26.93
2018-07-23T19:11:49.112Z,26.94
2018-07-23T19:14:17.190Z,27.82
2018-07-23T19:16:45.352Z,27.56
2018-07-23T19:19:13.048Z,28.00
2018-07-23T19:21:40.682Z,28.90
2018-07-23T19:24:08.331Z,29.12
2018-07-23T19:26:35.994Z,29.75
2018-07-23T19:29:03.646Z,29.78
2018-07-23T19:31:31.336Z,30.02
2018-07-23T19:34:00.246Z,30.61
2018-07-23T19:36:28.084Z,31.04
2018-07-23T19:38:56.034Z,30.60
2018-07-23T19:41:24.692Z,30.75
2018-07-23T19:43:52.631Z,30.88
2018-07-23T19:46:22.656Z,31.01
2018-07-23T19:48:50.258Z,31.15
2018-07-23T19:51:17.840Z,32.10
2018-07-23T19:53:45.460Z,31.33
2018-07-23T19:56:13.198Z,32.62
2018-07-23T19:58:41.507Z,33.67
2018-07-23T20:01:09.424Z,31.96
2018-07-23T20:03:37.074Z,32.79
2018-07-23T20:06:04.978Z,33.66
2018-07-23T20:08:32.765Z,34.42
2018-07-23T20:11:00.586Z,32.53
2018-07-23T20:13:28.379Z,32.97
2018-07-23T20:15:56.761Z,33.05
2018-07-23T20:18:24.583Z,32.22
2018-07-23T20:20:52.319Z,33.02
2018-07-23T20:23:20.040Z,32.97
2018-07-23T20:25:47.799Z,33.16
2018-07-23T20:28:15.583Z,33.39
2018-07-23T20:30:43.503Z,34.11
2018-07-23T20:33:11.266Z,33.36
2018-07-23T20:35:38.890Z,33.37
2018-07-23T20:38:06.599Z,33.71
2018-07-23T20:40:34.324Z,33.80
2018-07-23T20:43:01.987Z,33.55
2018-07-23T20:45:29.649Z,34.15
2018-07-23T20:47:57.712Z,33.72
2018-07-23T20:50:25.587Z,33.69
2018-07-23T20:52:53.192Z,34.60
2018-07-23T20:55:20.786Z,35.07
2018-07-23T20:57:48.428Z,35.28
2018-07-23T21:00:16.218Z,36.17
2018-07-23T21:02:43.738Z,35.78
2018-07-23T21:05:11.330Z,35.96
2018-07-23T21:07:38.962Z,36.88
2018-07-23T21:10:06.626Z,35.79
2018-07-23T21:12:34.241Z,35.97
2018-07-23T21:15:01.792Z,36.28
2018-07-23T21:17:29.405Z,35.75
2018-07-23T21:19:56.963Z,37.00
2018-07-23T21:22:24.609Z,36.42
2018-07-23T21:24:52.193Z,36.95
2018-07-23T21:27:19.792Z,37.26
2018-07-23T21:29:47.394Z,37.88
2018-07-23T21:32:15.249Z,37.34
2018-07-23T21:34:42.788Z,37.90
2018-07-23T21:37:10.412Z,37.66
2018-07-23T21:39:38.061Z,37.71
2018-07-23T21:42:05.921Z,36.76
2018-07-23T21:44:33.500Z,37.74
2018-07-23T21:47:01.108Z,36.95
2018-07-23T21:49:28.821Z,38.54
2018-07-23T21:51:56.562Z,38.80
2018-07-23T21:54:24.080Z,38.43
2018-07-23T21:56:51.682Z,38.40
2018-07-23T21:59:19.288Z,38.59
2018-07-23T22:01:46.910Z,39.02
2018-07-23T22:04:14.509Z,38.93
2018-07-23T22:06:42.116Z,38.15
2018-07-23T22:09:09.774Z,38.69
2018-07-23T22:11:37.476Z,39.04
2018-07-23T22:14:06.280Z,38.78
2018-07-23T22:16:33.842Z,39.67
2018-07-23T22:19:01.385Z,40.08
2018-07-23T22:21:29.003Z,40.03
2018-07-23T22:23:56.522Z,39.83
2018-07-23T22:26:24.091Z,40.06
2018-07-23T22:28:51.651Z,39.68
2018-07-23T22:31:19.278Z,39.87
2018-07-23T22:33:46.969Z,40.12
2018-07-23T22:36:14.480Z,41.41
2018-07-23T22:38:41.974Z,41.71
2018-07-23T22:41:09.566Z,41.94
2018-07-23T22:43:37.200Z,42.07
2018-07-23T22:46:04.780Z,43.09
2018-07-23T22:48:32.539Z,43.71
2018-07-23T22:51:00.390Z,43.64
2018-07-23T22:53:27.958Z,44.66
2018-07-23T22:55:55.437Z,45.25
2018-07-23T22:58:23.000Z,45.45
2018-07-23T23:00:50.549Z,45.35
2018-07-23T23:03:18.095Z,45.54
2018-07-23T23:05:45.664Z,45.29
2018-07-23T23:08:13.165Z,45.83
2018-07-23T23:10:40.885Z,45.78
2018-07-23T23:13:08.417Z,45.74
2018-07-23T23:15:35.945Z,45.71
2018-07-23T23:18:03.489Z,45.83
2018-07-23T23:20:31.075Z,46.11
2018-07-23T23:22:58.950Z,45.72
2018-07-23T23:25:26.544Z,45.26
2018-07-23T23:27:54.104Z,45.98
2018-07-23T23:30:21.705Z,47.08
2018-07-23T23:32:49.304Z,46.41
2018-07-23T23:35:16.845Z,47.26
2018-07-23T23:37:44.348Z,46.94
2018-07-23T23:40:11.949Z,46.23
2018-07-23T23:42:39.474Z,46.39
2018-07-23T23:45:07.028Z,46.63
2018-07-23T23:47:34.554Z,46.48
2018-07-23T23:50:02.159Z,47.18
2018-07-23T23:52:29.737Z,46.37
2018-07-23T23:54:57.291Z,45.86
2018-07-23T23:57:24.875Z,46.19
2018-07-23T23:59:52.521Z,46.48
